Portada
METAR-TAF:

METAR-TAF

Aeroports :

Ghadames, Líbia

latitud: 30-08N, longitud: 009-30E, altitud: 346 m

METAR: manca

Hora: 06:18 (04:18 UTC)

Pronòstic

L'informe es va fer fa 11 hores i 18 minuts, a les 17:00 UTC
Pronòstic vàlid del 17 a les 18 UTC al 18 a les 18 UTC
Vent 5 kt del Nord
Visibilitat: 8000 m
Evolucionant progressivament
l' 17 a les 00 UTC al 18 a les 02 UTC
Vent 10 kt del Est
Evolucionant progressivament
l' 18 a les 12 UTC al 18 a les 14 UTC
Vent 2 kt amb direcció variable

TAF: HLTD 171700Z 1718/1818 36005KT 8000 NSC BECMG 1700/1802 09010KT BECMG 1812/1814 VRB02KT

Observacions i pronòstics meteorològics de més de 4000 aeroports (METAR i TAF).

Les estacions disponibles són els punts grocs i vermells al mapa.

Posi el ratolí al punt desitjat per veure el nom de l'estació.

Feu clic per veure les observacions i els pronòstics meteorològics.

Per canviar el mapa: feu clic els botons verds amb una creu de color negre per apropar; al botó verd amb un guió per allunyar la imatge; o en les fletxes verdes per a mapes adjacents.


METAR-TAF: